This demonstration page uses our WeatherBlox Daily Observations layout. Learn more.

39.29038, -76.61219

Hourly Observations for September 29, 2016

Temp ( °F °C ) Dew Point ( °F °C ) Humidity (%) Winds ( mph kmh ) Pressure ( in mb ) Visibility ( mi km ) Precip ( " mm )
12:54 am 00:54 undefined 66 18.9 63 17.2 90 90 undefined N/A 30.08 1019 N/A 0 0
1:54 am 01:54 undefined 66 18.9 63 17.2 90 90 undefined N/A 30.08 1019 N/A 0 0
2:54 am 02:54 undefined 66 18.9 63 17.2 90 90 undefined N/A 30.08 1019 N/A 0.04 1.016
3:54 am 03:54 undefined 66 18.9 63 17.2 90 90 undefined N/A 30.09 1019 N/A 0.15 3.81
4:54 am 04:54 undefined 65 18.3 62 16.7 90 90 undefined N/A 30.11 1020 N/A 0.16 4.064
5:54 am 05:54 undefined 64 17.8 62 16.7 93 93 undefined N/A 30.1 1019 N/A 0.14 3.556
6:54 am 06:54 undefined 64 17.8 62 16.7 93 93 undefined N/A 30.12 1020 N/A 0.02 0.508
7:54 am 07:54 undefined 65 18.3 62 16.7 90 90 undefined N/A 30.15 1021 N/A 0.03 0.762
8:54 am 08:54 undefined 65 18.3 63 17.2 93 93 undefined N/A 30.17 1022 N/A 0.75 19.05
9:54 am 09:54 undefined 66 18.9 63 17.2 90 90 undefined N/A 30.17 1022 N/A 0.26 6.604
10:54 am 10:54 undefined 66 18.9 63 17.2 90 90 undefined N/A 30.18 1022 N/A 0 0
11:54 am 11:54 undefined 66 18.9 63 17.2 90 90 undefined N/A 30.2 1023 N/A 0 0
12:54 pm 12:54 undefined 67 19.4 63 17.2 87 87 undefined N/A 30.2 1023 N/A 0 0
1:54 pm 13:54 undefined 67 19.4 62 16.7 84 84 undefined N/A 30.2 1023 N/A 0 0
2:54 pm 14:54 undefined 65 18.3 62 16.7 90 90 undefined N/A 30.18 1022 N/A 0.01 0.254
3:54 pm 15:54 undefined 65 18.3 62 16.7 90 90 undefined N/A 30.18 1022 N/A 0.01 0.254
4:54 pm 16:54 undefined 65 18.3 62 16.7 90 90 undefined N/A 30.19 1022 N/A 0.03 0.762
5:54 pm 17:54 undefined 64 17.8 62 16.7 93 93 undefined N/A 30.19 1022 N/A 0.04 1.016
6:54 pm 18:54 undefined 64 17.8 61 16.1 90 90 undefined N/A 30.2 1023 N/A 0.01 0.254
7:54 pm 19:54 undefined 64 17.8 60 15.6 87 87 undefined N/A 30.2 1023 N/A 0 0
8:54 pm 20:54 undefined 64 17.8 60 15.6 87 87 undefined N/A 30.2 1023 N/A 0 0
9:54 pm 21:54 undefined 64 17.8 59 15 84 84 undefined N/A 30.2 1023 N/A 0 0
10:54 pm 22:54 undefined 63 17.2 59 15 87 87 undefined N/A 30.19 1022 N/A 0.02 0.508
11:54 pm 23:54 undefined 63 17.2 59 15 87 87 undefined N/A 30.19 1022 N/A 0.01 0.254

Powered by AerisWeather